Time;durP1;ratioP1;P1;durP2;ratioP2;P2;SDS_P1;SDS_P2;PMS_P1;PMS_P2;Temp;Humidity;BMP_temperature;BMP_pressure;BME280_temperature;BME280_humidity;BME280_pressure;Samples;Min_cycle;Max_cycle;Signal;HPM_P1;HPM_P2
2022/06/26 00:01:35;;;;;;;12.30;11.10;;;;;;;;;;4987347;28;20041;-86
2022/06/26 00:04:01;;;;;;;12.50;11.30;;;;;;;17.99;100.00;68774.22;4988184;28;20053;-86
2022/06/26 00:06:27;;;;;;;12.38;11.18;;;;;;;17.99;100.00;68766.16;4987794;28;20779;-87
2022/06/26 00:08:52;;;;;;;12.07;10.88;;;;;;;;;;4988014;28;20738;-86
2022/06/26 00:11:18;;;;;;;13.00;11.70;;;;;;;17.96;100.00;68772.94;4988470;28;20050;-86
2022/06/26 00:13:43;;;;;;;12.38;10.80;;;;;;;;;;4986089;28;20066;-86
2022/06/26 00:16:08;;;;;;;13.68;12.10;;;;;;;;;;4989087;28;20042;-86
2022/06/26 00:18:34;;;;;;;14.50;13.00;;;;;;;18.31;100.00;68809.06;4986726;28;20496;-86
2022/06/26 00:21:00;;;;;;;13.57;11.38;;;;;;;18.57;98.64;68832.78;4989112;28;20042;-86
2022/06/26 00:23:25;;;;;;;13.45;11.38;;;;;;;;;;4987714;28;20042;-86
2022/06/26 00:25:50;;;;;;;14.18;12.68;;;;;;;18.81;97.78;68860.19;4987193;28;20054;-86
2022/06/26 00:28:16;;;;;;;15.77;14.20;;;;;;;18.85;98.77;68869.59;4988527;28;20040;-86
2022/06/26 00:30:41;;;;;;;17.80;15.65;;;;;;;18.83;100.00;68862.50;4986110;28;20048;-87
2022/06/26 00:33:07;;;;;;;16.92;14.05;;;;;;;18.81;100.00;68865.03;4988494;28;20466;-86
2022/06/26 00:35:33;;;;;;;18.48;15.73;;;;;;;18.78;100.00;68861.59;4987217;28;20077;-86
2022/06/26 00:37:58;;;;;;;18.83;15.25;;;;;;;18.71;100.00;68854.72;4999579;28;20168;-86
2022/06/26 00:40:24;;;;;;;18.10;15.90;;;;;;;;;;4986430;28;20531;-86
2022/06/26 00:42:49;;;;;;;19.02;16.02;;;;;;;18.67;100.00;68849.59;4984968;28;20100;-86
2022/06/26 00:45:14;;;;;;;18.85;14.85;;;;;;;18.68;100.00;68845.34;4985960;28;20058;-86
2022/06/26 00:47:40;;;;;;;19.27;17.27;;;;;;;18.64;100.00;68840.75;4985863;28;20042;-87
2022/06/26 00:50:08;;;;;;;19.67;17.35;;;;;;;18.64;100.00;68846.16;4986378;28;20062;-88
2022/06/26 00:52:33;;;;;;;22.60;18.67;;;;;;;;;;4987811;28;20050;-87
2022/06/26 00:54:59;;;;;;;23.27;17.17;;;;;;;18.49;100.00;68829.59;4989627;28;20093;-87
2022/06/26 00:57:24;;;;;;;23.98;20.30;;;;;;;18.44;100.00;68818.50;4990187;28;20045;-90
2022/06/26 00:59:50;;;;;;;24.05;21.17;;;;;;;18.39;100.00;68810.09;4987596;28;20053;-87
2022/06/26 01:02:15;;;;;;;24.83;20.50;;;;;;;;;;4988490;28;20050;-88
2022/06/26 01:04:41;;;;;;;23.08;16.30;;;;;;;18.27;100.00;68799.69;4985294;28;20106;-87
2022/06/26 01:07:06;;;;;;;23.42;20.95;;;;;;;;;;4986455;28;20046;-87
2022/06/26 01:09:33;;;;;;;24.85;22.30;;;;;;;18.16;100.00;68787.69;4975708;28;20047;-87
2022/06/26 01:11:59;;;;;;;25.88;22.38;;;;;;;18.09;100.00;68785.06;5000802;28;20129;-87
2022/06/26 01:14:24;;;;;;;27.17;22.63;;;;;;;18.03;100.00;68778.78;4984375;28;20128;-86
2022/06/26 01:16:50;;;;;;;26.33;21.15;;;;;;;17.98;100.00;68772.50;4985088;28;20046;-86
2022/06/26 01:19:18;;;;;;;26.20;23.23;;;;;;;18.04;100.00;68779.38;4984567;28;20050;-86
2022/06/26 01:21:43;;;;;;;25.08;20.80;;;;;;;;;;4983604;28;20046;-86
2022/06/26 01:24:09;;;;;;;26.02;22.25;;;;;;;17.96;100.00;68765.44;4985826;28;20088;-86
2022/06/26 01:26:36;;;;;;;27.20;21.83;;;;;;;18.11;100.00;68787.34;4986465;28;20061;-86
2022/06/26 01:29:03;;;;;;;26.20;22.33;;;;;;;18.10;100.00;68785.66;4985956;28;20038;-86
2022/06/26 01:31:28;;;;;;;25.35;22.25;;;;;;;18.07;100.00;68782.81;4983751;28;20053;-86
2022/06/26 01:33:54;;;;;;;30.05;24.13;;;;;;;18.07;100.00;68782.81;4984701;28;20050;-86
2022/06/26 01:36:19;;;;;;;29.83;23.17;;;;;;;17.98;100.00;68773.09;4985000;28;20054;-86
2022/06/26 01:38:45;;;;;;;25.50;22.77;;;;;;;17.90;100.00;68763.41;4984702;28;20050;-87
2022/06/26 01:41:11;;;;;;;28.35;23.25;;;;;;;17.90;100.00;68763.41;4985036;28;20061;-86
2022/06/26 01:43:38;;;;;;;27.70;24.45;;;;;;;17.95;100.00;68769.09;4983904;28;20556;-86
2022/06/26 01:46:04;;;;;;;29.40;24.80;;;;;;;;;;4974124;28;20049;-87
2022/06/26 01:48:32;;;;;;;29.38;25.20;;;;;;;17.92;100.00;68768.34;4962584;28;20042;-87
2022/06/26 01:50:59;;;;;;;29.92;24.65;;;;;;;17.97;100.00;68771.38;4972077;28;20042;-87
2022/06/26 01:53:25;;;;;;;29.35;23.92;;;;;;;17.94;100.00;68762.56;4983704;28;20037;-87
2022/06/26 01:55:50;;;;;;;27.45;21.08;;;;;;;17.87;100.00;68755.16;4983710;28;20042;-86
2022/06/26 01:58:16;;;;;;;30.95;23.95;;;;;;;17.96;100.00;68764.84;4984815;28;20038;-87
2022/06/26 02:00:43;;;;;;;30.33;25.05;;;;;;;;;;4976621;28;20562;-86
2022/06/26 02:03:09;;;;;;;29.92;24.13;;;;;;;18.02;100.00;68777.09;4985192;28;20050;-87
2022/06/26 02:05:35;;;;;;;30.05;24.90;;;;;;;18.00;100.00;68774.81;4983558;28;20126;-86
2022/06/26 02:08:01;;;;;;;29.73;23.42;;;;;;;17.98;100.00;68772.50;4984790;28;20053;-86
2022/06/26 02:15:55;;;;;;;28.08;24.25;;;;;;;;;;4999241;28;20076;-86
2022/06/26 02:18:21;;;;;;;30.77;23.42;;;;;;;17.93;100.00;68766.81;5017671;28;20490;-86
2022/06/26 02:20:46;;;;;;;29.92;23.42;;;;;;;;;;5015717;28;20046;-86
2022/06/26 02:23:12;;;;;;;26.73;19.80;;;;;;;17.84;100.00;68751.72;4984182;28;20438;-86
2022/06/26 02:25:38;;;;;;;24.70;19.40;;;;;;;17.73;100.00;68739.72;4985650;28;20843;-86
2022/06/26 02:28:04;;;;;;;25.08;19.00;;;;;;;17.74;100.00;68746.25;4984998;28;20034;-86
2022/06/26 02:30:30;;;;;;;24.08;18.60;;;;;;;17.70;100.00;68736.31;4982625;28;20563;-86
2022/06/26 02:32:56;;;;;;;25.15;19.90;;;;;;;17.72;100.00;68743.97;5016333;28;20054;-86
2022/06/26 02:35:25;;;;;;;26.83;20.10;;;;;;;;;;4983123;28;20049;-86
2022/06/26 02:37:51;;;;;;;27.65;21.27;;;;;;;17.62;100.00;68732.00;4982249;28;20046;-86
2022/06/26 02:40:19;;;;;;;27.67;23.25;;;;;;;17.65;100.00;68730.59;4983438;28;20050;-86
2022/06/26 02:42:45;;;;;;;31.13;24.50;;;;;;;17.65;100.00;68735.97;4984287;28;20108;-87
2022/06/26 02:45:10;;;;;;;32.38;26.60;;;;;;;17.65;100.00;68735.41;4987252;28;20674;-87
2022/06/26 02:47:36;;;;;;;35.53;27.58;;;;;;;17.60;100.00;68730.84;4987908;28;20117;-87
2022/06/26 02:50:03;;;;;;;34.28;24.95;;;;;;;17.55;100.00;68724.56;4985591;28;20030;-87
2022/06/26 02:52:28;;;;;;;35.15;26.10;;;;;;;;;;4982174;28;20070;-87
2022/06/26 02:54:53;;;;;;;36.22;26.10;;;;;;;17.46;100.00;68714.84;4988858;28;20078;-87
2022/06/26 02:57:19;;;;;;;37.47;26.15;;;;;;;;;;4994836;28;20041;-87
2022/06/26 02:59:44;;;;;;;40.20;28.33;;;;;;;17.43;100.00;68710.88;4987649;28;20050;-87
2022/06/26 03:02:09;;;;;;;38.33;27.88;;;;;;;17.37;100.00;68705.16;4978140;28;20732;-87
2022/06/26 03:04:35;;;;;;;36.78;29.48;;;;;;;17.36;100.00;68698.63;4985580;28;20128;-86
2022/06/26 03:07:00;;;;;;;42.97;30.30;;;;;;;;;;4983171;28;20046;-87
2022/06/26 03:09:25;;;;;;;39.65;28.50;;;;;;;17.34;100.00;68701.16;4985962;28;20533;-87
2022/06/26 03:11:51;;;;;;;42.58;30.38;;;;;;;;;;4986081;28;20038;-87
2022/06/26 03:14:16;;;;;;;43.23;30.77;;;;;;;17.29;100.00;68687.97;4987386;28;20054;-86
2022/06/26 03:16:41;;;;;;;45.33;31.67;;;;;;;;;;4986508;28;20658;-86
2022/06/26 03:19:07;;;;;;;47.37;32.20;;;;;;;17.30;100.00;68699.88;4987581;28;20710;-86
2022/06/26 03:21:32;;;;;;;43.80;32.92;;;;;;;17.30;100.00;68696.63;4987030;28;20773;-86
2022/06/26 03:24:03;;;;;;;46.95;32.58;;;;;;;17.27;100.00;68693.75;4987756;28;20038;-86
2022/06/26 03:26:29;;;;;;;47.15;34.20;;;;;;;;;;4987107;28;20046;-87
2022/06/26 03:28:55;;;;;;;46.97;34.97;;;;;;;17.25;100.00;68693.59;4987961;28;20054;-86
2022/06/26 03:31:20;;;;;;;45.95;34.80;;;;;;;17.21;100.00;68681.53;5005848;28;20050;-86
2022/06/26 03:33:45;;;;;;;51.10;36.03;;;;;;;;;;4986981;28;20105;-86
2022/06/26 03:36:11;;;;;;;52.63;36.75;;;;;;;17.17;100.00;68676.41;4970129;28;20042;-86
2022/06/26 03:38:37;;;;;;;55.58;37.60;;;;;;;;;;4967983;28;20463;-86
2022/06/26 03:41:03;;;;;;;57.30;39.28;;;;;;;17.12;100.00;68668.59;4969651;28;20053;-86
2022/06/26 03:43:28;;;;;;;56.55;38.55;;;;;;;17.11;100.00;68670.13;4966869;28;20038;-86
2022/06/26 03:45:53;;;;;;;58.40;43.03;;;;;;;;;;4968657;28;20698;-86
2022/06/26 03:48:18;;;;;;;58.10;41.22;;;;;;;;;;4969577;28;20074;-86
2022/06/26 03:50:44;;;;;;;57.42;37.78;;;;;;;17.10;100.00;68669.56;4985958;28;20047;-86
2022/06/26 03:53:09;;;;;;;57.72;39.60;;;;;;;;;;4987200;28;20030;-86
2022/06/26 03:55:35;;;;;;;58.10;40.60;;;;;;;17.09;100.00;68673.22;4993316;28;20050;-86
2022/06/26 03:58:01;;;;;;;57.60;40.15;;;;;;;;;;4987485;28;20038;-86
2022/06/26 04:00:27;;;;;;;53.15;38.80;;;;;;;17.06;100.00;68672.47;4988030;28;20042;-86
2022/06/26 04:02:52;;;;;;;57.95;37.35;;;;;;;;;;4987218;28;20541;-86
2022/06/26 04:05:18;;;;;;;55.55;35.53;;;;;;;;;;4987357;28;20073;-87
2022/06/26 04:07:43;;;;;;;52.30;37.37;;;;;;;;;;4987116;28;20129;-87
2022/06/26 04:10:08;;;;;;;54.53;36.33;;;;;;;17.09;100.00;68673.22;4992012;28;20307;-87
2022/06/26 04:12:34;;;;;;;51.70;38.47;;;;;;;17.08;100.00;68672.06;4980832;28;20304;-86
2022/06/26 04:14:59;;;;;;;56.67;42.38;;;;;;;;;;4986426;28;20035;-87
2022/06/26 04:17:24;;;;;;;56.15;39.30;;;;;;;17.04;100.00;68668.09;4986595;28;20065;-86
2022/06/26 04:19:50;;;;;;;59.78;40.38;;;;;;;;;;4983307;28;20162;-86
2022/06/26 04:22:15;;;;;;;58.85;43.20;;;;;;;;;;4958772;28;20100;-87
2022/06/26 04:24:40;;;;;;;61.08;41.60;;;;;;;;;;4966304;28;20043;-87
2022/06/26 04:27:06;;;;;;;57.73;41.77;;;;;;;17.11;100.00;68676.06;4947936;28;20106;-86
2022/06/26 04:29:31;;;;;;;63.42;41.85;;;;;;;;;;4953810;28;20348;-86
2022/06/26 04:31:57;;;;;;;63.22;40.30;;;;;;;17.11;100.00;68676.06;4966747;28;20121;-87
2022/06/26 04:34:22;;;;;;;62.53;43.47;;;;;;;;;;4968265;28;20670;-86
2022/06/26 04:36:47;;;;;;;58.33;44.40;;;;;;;17.11;100.00;68676.06;4966423;28;20078;-86
2022/06/26 04:39:13;;;;;;;57.28;43.25;;;;;;;17.10;100.00;68677.06;4968161;28;20282;-86
2022/06/26 04:41:39;;;;;;;51.22;35.15;;;;;;;17.11;100.00;68670.13;4969753;28;20046;-86
2022/06/26 04:44:06;;;;;;;47.15;36.30;;;;;;;17.09;100.00;68673.22;4987913;28;20038;-87
2022/06/26 04:46:33;;;;;;;47.55;33.92;;;;;;;17.16;100.00;68680.63;4988597;28;20043;-86
2022/06/26 04:48:58;;;;;;;41.42;30.13;;;;;;;;;;4983976;28;20118;-87
2022/06/26 04:51:23;;;;;;;40.58;28.35;;;;;;;;;;4973910;28;20125;-86
2022/06/26 04:53:49;;;;;;;39.45;29.95;;;;;;;;;;4981771;28;20046;-87
2022/06/26 04:56:14;;;;;;;35.30;27.85;;;;;;;17.13;100.00;68678.34;4963211;28;20051;-87
2022/06/26 04:58:40;;;;;;;32.13;26.05;;;;;;;17.14;100.00;68678.91;4965965;28;20039;-87
2022/06/26 05:01:05;;;;;;;31.90;25.70;;;;;;;17.17;100.00;68682.34;4965002;28;20507;-88
2022/06/26 05:03:30;;;;;;;34.13;27.42;;;;;;;;;;4965336;28;20065;-88
2022/06/26 05:05:56;;;;;;;31.77;24.20;;;;;;;17.18;100.00;68678.13;4966653;28;20067;-87
2022/06/26 05:08:22;;;;;;;31.70;25.60;;;;;;;17.24;100.00;68684.97;4962042;28;20586;-87
2022/06/26 05:10:47;;;;;;;31.35;23.73;;;;;;;17.22;100.00;68682.66;4968067;28;20126;-87
2022/06/26 05:13:12;;;;;;;29.98;23.02;;;;;;;;;;4984238;28;20097;-87
2022/06/26 05:15:38;;;;;;;35.47;26.20;;;;;;;17.29;100.00;68695.47;4984398;28;20609;-87
2022/06/26 05:18:04;;;;;;;29.55;23.42;;;;;;;17.30;100.00;68697.19;4984684;28;20912;-87
2022/06/26 05:20:29;;;;;;;31.65;24.80;;;;;;;;;;4985487;28;20042;-87
2022/06/26 05:22:54;;;;;;;31.83;24.95;;;;;;;17.43;100.00;68710.88;4985489;28;20125;-87
2022/06/26 05:25:21;;;;;;;26.95;22.17;;;;;;;17.41;100.00;68709.16;4985291;28;20113;-88
2022/06/26 05:27:47;;;;;;;27.77;22.33;;;;;;;17.42;100.00;68709.72;4982938;28;20034;-87
2022/06/26 05:30:12;;;;;;;24.10;20.10;;;;;;;;;;4986155;28;20034;-87
2022/06/26 05:32:37;;;;;;;27.02;22.98;;;;;;;;;;4983907;28;20035;-88
2022/06/26 05:35:03;;;;;;;27.52;22.77;;;;;;;17.51;100.00;68720.56;4986053;28;20616;-87
2022/06/26 05:37:29;;;;;;;32.00;22.23;;;;;;;17.51;100.00;68714.63;4985296;28;20045;-86
2022/06/26 05:39:54;;;;;;;29.63;22.85;;;;;;;17.56;100.00;68726.28;4984984;28;20153;-88
2022/06/26 05:42:19;;;;;;;27.55;23.08;;;;;;;17.63;100.00;68739.06;4984178;28;20482;-87
2022/06/26 05:44:45;;;;;;;26.65;23.85;;;;;;;17.65;100.00;68730.03;4986589;28;20153;-87
2022/06/26 05:47:10;;;;;;;25.27;19.70;;;;;;;17.59;100.00;68729.13;4987828;28;20056;-87
2022/06/26 05:49:36;;;;;;;26.02;21.40;;;;;;;17.59;100.00;68729.69;4985892;28;20050;-87
2022/06/26 05:52:01;;;;;;;26.25;21.15;;;;;;;;;;4986783;28;20038;-86
2022/06/26 05:54:26;;;;;;;23.77;20.50;;;;;;;;;;4986710;28;20046;-87
2022/06/26 05:56:51;;;;;;;21.42;18.52;;;;;;;;;;4985153;28;20096;-87
2022/06/26 05:59:17;;;;;;;24.13;20.48;;;;;;;;;;4987105;28;20044;-88
2022/06/26 06:01:43;;;;;;;23.60;19.42;;;;;;;17.50;100.00;68714.06;4986377;28;20046;-87
2022/06/26 06:04:08;;;;;;;22.77;18.42;;;;;;;17.50;100.00;68713.47;4981458;28;20057;-89
2022/06/26 06:06:34;;;;;;;23.50;18.88;;;;;;;;;;4995267;28;20041;-86
2022/06/26 06:08:59;;;;;;;22.58;18.25;;;;;;;17.57;100.00;68722.03;4986122;28;20046;-87
2022/06/26 06:11:25;;;;;;;23.27;18.33;;;;;;;17.53;100.00;68722.84;5003249;28;20054;-90
2022/06/26 06:13:51;;;;;;;22.00;16.35;;;;;;;17.49;100.00;68718.28;4986878;28;20039;-87
2022/06/26 06:16:16;;;;;;;22.38;15.88;;;;;;;;;;4985981;28;20603;-90
2022/06/26 06:18:42;;;;;;;21.30;18.40;;;;;;;17.40;100.00;68702.63;4988117;28;20046;-86
2022/06/26 06:21:07;;;;;;;22.35;15.27;;;;;;;17.40;100.00;68708.00;4988348;28;20046;-90
2022/06/26 06:23:32;;;;;;;19.48;15.55;;;;;;;;;;4988775;28;20109;-87
2022/06/26 06:25:58;;;;;;;21.52;16.42;;;;;;;;;;4988666;28;20038;-87
2022/06/26 06:28:23;;;;;;;20.77;17.27;;;;;;;17.42;100.00;68704.34;4988550;28;20043;-88
2022/06/26 06:30:48;;;;;;;20.60;17.73;;;;;;;;;;4987902;28;20277;-87
2022/06/26 06:33:14;;;;;;;22.48;17.35;;;;;;;17.48;100.00;68708.50;4988146;28;20034;-87
2022/06/26 06:35:40;;;;;;;21.33;17.40;;;;;;;;;;4989826;28;20504;-87
2022/06/26 06:38:05;;;;;;;23.60;17.48;;;;;;;;;;4990769;28;20034;-90
2022/06/26 06:40:31;;;;;;;24.00;18.85;;;;;;;17.69;100.00;68735.16;4989946;28;20543;-87
2022/06/26 06:42:56;;;;;;;19.58;16.33;;;;;;;;;;4988284;28;20066;-87
2022/06/26 06:45:22;;;;;;;20.77;15.63;;;;;;;17.58;100.00;68728.00;4990198;28;20133;-89
2022/06/26 06:47:47;;;;;;;18.17;15.25;;;;;;;;;;4987479;28;20340;-86
2022/06/26 06:50:12;;;;;;;21.77;15.38;;;;;;;17.69;100.00;68739.97;4988922;28;20566;-88
2022/06/26 06:52:38;;;;;;;20.38;15.18;;;;;;;17.81;100.00;68748.88;4987181;28;20046;-88
2022/06/26 06:55:04;;;;;;;18.77;15.90;;;;;;;17.86;100.00;68754.00;4986737;28;20062;-88
2022/06/26 06:57:29;;;;;;;18.05;14.75;;;;;;;17.92;100.00;68765.66;4969427;28;20560;-88
2022/06/26 06:59:54;;;;;;;18.00;14.35;;;;;;;;;;4992006;28;20049;-88
2022/06/26 07:02:20;;;;;;;15.07;12.05;;;;;;;17.94;98.83;68763.13;5000779;28;20080;-88
2022/06/26 07:04:45;;;;;;;16.98;13.50;;;;;;;18.00;97.63;68769.41;4999175;28;20117;-88
2022/06/26 07:07:11;;;;;;;14.23;11.27;;;;;;;18.08;96.65;68777.97;5008804;28;20129;-91
2022/06/26 07:09:36;;;;;;;14.70;11.55;;;;;;;18.11;96.00;68781.41;5010365;28;20045;-88
2022/06/26 07:12:02;;;;;;;15.50;12.10;;;;;;;18.17;95.65;68788.25;5009683;28;20490;-88
2022/06/26 07:14:27;;;;;;;15.68;11.57;;;;;;;18.17;95.55;68794.22;5010121;28;20042;-88
2022/06/26 07:16:53;;;;;;;16.70;12.60;;;;;;;18.11;95.60;68781.41;5006949;28;20620;-87
2022/06/26 07:19:18;;;;;;;14.15;11.27;;;;;;;18.11;94.56;68781.97;4991483;28;20067;-87
2022/06/26 07:21:44;;;;;;;14.85;12.48;;;;;;;18.14;95.35;68785.41;4991782;28;20042;-87
2022/06/26 07:24:12;;;;;;;16.02;13.43;;;;;;;;;;4992413;28;20050;-88
2022/06/26 07:26:39;;;;;;;15.23;12.63;;;;;;;18.28;97.63;68800.81;4991616;28;20042;-88
2022/06/26 07:29:04;;;;;;;16.33;12.07;;;;;;;18.28;93.89;68806.19;4990094;28;20049;-87
2022/06/26 07:31:30;;;;;;;16.33;13.20;;;;;;;18.36;92.64;68809.38;4996085;28;20125;-87
2022/06/26 07:34:13;;;;;;;15.68;11.77;;;;;;;18.47;91.93;68827.31;4990256;28;20053;-87
2022/06/26 07:36:45;;;;;;;16.58;12.68;;;;;;;18.40;92.62;68819.31;4990446;28;20046;-87
2022/06/26 07:39:12;;;;;;;13.90;12.38;;;;;;;;;;5005702;28;20493;-86
2022/06/26 07:41:39;;;;;;;15.57;11.15;;;;;;;18.78;91.13;68856.78;4988516;28;20057;-88
2022/06/26 07:44:06;;;;;;;15.90;11.63;;;;;;;;;;4986275;28;20050;-87
2022/06/26 07:46:31;;;;;;;14.48;12.48;;;;;;;18.81;91.18;68854.25;4986690;28;20046;-86
2022/06/26 07:48:57;;;;;;;14.73;11.27;;;;;;;18.87;88.58;68866.47;4985530;28;20045;-87
2022/06/26 07:51:22;;;;;;;12.25;9.73;;;;;;;18.97;88.97;68877.91;4986736;28;20042;-87
2022/06/26 07:53:48;;;;;;;14.10;11.90;;;;;;;;;;5021381;28;20050;-87
2022/06/26 07:56:13;;;;;;;14.05;12.55;;;;;;;18.89;88.05;68869.34;4990606;28;20453;-87
2022/06/26 07:58:39;;;;;;;14.15;10.90;;;;;;;;;;4990901;28;20031;-89
2022/06/26 08:01:04;;;;;;;13.75;9.52;;;;;;;18.81;85.46;68860.19;4993847;28;20047;-87
2022/06/26 08:03:30;;;;;;;12.30;10.15;;;;;;;18.77;86.78;68855.06;4991255;28;20113;-89
2022/06/26 08:05:55;;;;;;;14.20;11.38;;;;;;;;;;4992109;28;20074;-87
2022/06/26 08:08:20;;;;;;;13.95;11.00;;;;;;;;;;4988371;28;20042;-87
2022/06/26 08:10:46;;;;;;;11.57;9.77;;;;;;;18.76;86.91;68854.50;4987610;28;20394;-87
2022/06/26 08:13:11;;;;;;;10.60;7.50;;;;;;;18.92;83.51;68872.75;4987761;28;20046;-87
2022/06/26 08:15:37;;;;;;;11.23;8.65;;;;;;;18.99;84.34;68880.19;4987774;28;20121;-88
2022/06/26 08:18:03;;;;;;;13.65;8.80;;;;;;;19.12;84.99;68895.03;4988807;28;20058;-87
2022/06/26 08:20:29;;;;;;;12.93;9.27;;;;;;;19.31;84.94;68921.03;4981209;28;20121;-88
2022/06/26 08:22:54;;;;;;;11.38;9.15;;;;;;;19.30;82.97;68919.84;4988840;28;20229;-86
2022/06/26 08:25:19;;;;;;;11.98;8.38;;;;;;;;;;4990400;28;20069;-86
2022/06/26 08:27:45;;;;;;;11.07;9.20;;;;;;;19.25;83.95;68914.13;4987551;28;20518;-85
2022/06/26 08:30:11;;;;;;;9.68;8.65;;;;;;;19.15;82.56;68903.88;4989017;28;20046;-86
2022/06/26 08:32:36;;;;;;;9.50;7.57;;;;;;;;;;4987930;28;20099;-86
2022/06/26 08:35:04;;;;;;;9.05;6.97;;;;;;;19.35;81.83;68928.28;4987554;28;20486;-89
2022/06/26 08:37:29;;;;;;;7.63;5.28;;;;;;;;;;5020014;28;20497;-89
2022/06/26 08:39:55;;;;;;;8.93;6.50;;;;;;;;;;4987295;28;20125;-86
2022/06/26 08:42:21;;;;;;;5.63;4.20;;;;;;;19.39;78.05;68922.63;4987637;28;20760;-86
2022/06/26 08:44:48;;;;;;;6.53;4.30;;;;;;;19.53;77.70;68945.56;4986531;28;20057;-86
2022/06/26 08:47:17;;;;;;;7.85;5.10;;;;;;;19.67;76.48;68955.63;4986923;28;20065;-86
2022/06/26 08:49:44;;;;;;;7.35;5.38;;;;;;;19.77;77.30;68967.63;4988363;28;20050;-87
2022/06/26 08:52:10;;;;;;;7.35;5.45;;;;;;;19.85;76.26;68976.19;4988482;28;20045;-89
2022/06/26 08:54:36;;;;;;;5.65;4.32;;;;;;;19.87;76.40;68978.47;4986063;28;20053;-89
2022/06/26 08:57:01;;;;;;;7.80;5.25;;;;;;;;;;4993020;28;20042;-87
2022/06/26 08:59:27;;;;;;;7.65;5.43;;;;;;;;;;4973858;28;20098;-87
2022/06/26 09:01:53;;;;;;;6.72;4.65;;;;;;;19.71;75.79;68960.78;4972855;28;20748;-88
2022/06/26 09:04:18;;;;;;;5.43;3.97;;;;;;;;;;4967882;28;20049;-86
2022/06/26 09:06:44;;;;;;;7.18;5.20;;;;;;;19.74;75.45;68964.19;4977926;28;20038;-87
2022/06/26 09:09:17;;;;;;;6.65;3.90;;;;;;;19.91;75.65;68987.88;4988018;28;20134;-87
2022/06/26 09:11:43;;;;;;;8.38;4.20;;;;;;;20.08;74.03;68998.63;4988329;28;20092;-86
2022/06/26 09:14:09;;;;;;;5.78;4.10;;;;;;;;;;4987943;28;20129;-87
2022/06/26 09:16:38;;;;;;;6.85;4.38;;;;;;;;;;4986812;28;20049;-88
2022/06/26 09:19:36;;;;;;;5.43;4.40;;;;;;;20.19;71.99;69011.78;4975108;28;20053;-88
2022/06/26 09:22:21;;;;;;;8.15;4.40;;;;;;;20.08;71.85;69007.31;4967434;28;20125;-87
2022/06/26 09:24:56;;;;;;;7.70;4.50;;;;;;;;;;4966748;28;20050;-88
2022/06/26 09:27:22;;;;;;;7.78;4.43;;;;;;;20.14;73.50;69008.78;4982911;28;20045;-88
2022/06/26 09:29:53;;;;;;;6.25;4.68;;;;;;;20.26;73.55;69021.94;4988931;28;20161;-87
2022/06/26 09:32:19;;;;;;;6.47;3.50;;;;;;;20.27;71.11;69023.06;4991747;28;20049;-87
2022/06/26 09:34:52;;;;;;;6.85;3.92;;;;;;;20.37;71.61;69034.50;4989050;28;20027;-88
2022/06/26 09:37:18;;;;;;;5.63;3.33;;;;;;;;;;4995576;28;20050;-91
2022/06/26 09:39:43;;;;;;;4.78;2.97;;;;;;;20.63;70.39;69063.09;4987482;28;20466;-87
2022/06/26 09:42:31;;;;;;;6.95;3.75;;;;;;;20.69;70.48;69069.97;4987402;28;20042;-87
2022/06/26 09:44:59;;;;;;;4.23;3.47;;;;;;;20.74;70.91;69075.69;4981443;28;20046;-87
2022/06/26 09:47:26;;;;;;;5.03;3.70;;;;;;;20.79;69.88;69078.69;4985636;28;20282;-87
2022/06/26 09:49:54;;;;;;;5.75;3.00;;;;;;;20.70;68.08;69068.97;4986265;28;20046;-86
2022/06/26 09:52:25;;;;;;;4.35;3.70;;;;;;;20.58;69.14;69057.41;4989441;28;20062;-88
2022/06/26 09:54:52;;;;;;;4.45;3.00;;;;;;;20.95;69.54;69105.13;4989838;28;20042;-87
2022/06/26 09:57:18;;;;;;;5.47;3.08;;;;;;;21.07;67.23;69121.00;4989593;28;20050;-87
2022/06/26 09:59:44;;;;;;;5.25;3.40;;;;;;;21.08;68.17;69111.28;4981903;28;20049;-87
2022/06/26 10:07:41;;;;;;;4.35;2.78;;;;;;;21.45;65.61;69151.94;4984321;28;20093;-88
2022/06/26 10:10:07;;;;;;;3.95;2.58;;;;;;;21.32;65.06;69140.31;4996143;28;20046;-87
2022/06/26 10:12:34;;;;;;;3.58;2.17;;;;;;;;;;4993519;28;20513;-89
2022/06/26 10:14:59;;;;;;;5.90;3.00;;;;;;;;;;4983544;28;20399;-87
2022/06/26 10:17:25;;;;;;;4.38;2.03;;;;;;;;;;4974588;28;20101;-88
2022/06/26 10:19:54;;;;;;;4.40;2.28;;;;;;;21.09;65.47;69115.16;4971386;28;20073;-86
2022/06/26 10:22:19;;;;;;;5.25;2.30;;;;;;;21.32;64.22;69137.59;4975814;28;20510;-87
2022/06/26 10:24:57;;;;;;;4.43;1.90;;;;;;;21.53;61.86;69164.38;4988684;28;20065;-86
2022/06/26 10:27:34;;;;;;;4.70;2.60;;;;;;;21.36;62.69;69144.91;4989628;28;20043;-87
2022/06/26 10:30:09;;;;;;;4.53;1.77;;;;;;;;;;4985538;28;20434;-87
2022/06/26 10:32:35;;;;;;;4.47;1.63;;;;;;;21.28;61.99;69136.31;4991545;28;20533;-86
2022/06/26 10:35:00;;;;;;;4.03;1.70;;;;;;;21.46;62.97;69153.66;5021694;28;20096;-85
2022/06/26 10:37:26;;;;;;;3.10;1.60;;;;;;;21.62;60.00;69174.69;4983821;28;20488;-86
2022/06/26 10:39:56;;;;;;;5.97;2.05;;;;;;;21.64;61.71;69173.69;4975323;28;20049;-86
2022/06/26 10:45:20;;;;;;;3.87;2.10;;;;;;;;;;5008936;28;20183;-86
2022/06/26 10:47:48;;;;;;;4.72;2.40;;;;;;;;;;4968221;28;20038;-86
2022/06/26 10:50:33;;;;;;;4.17;2.17;;;;;;;21.93;63.80;69209.03;4969482;28;20056;-86
2022/06/26 10:53:16;;;;;;;4.40;2.22;;;;;;;22.06;63.32;69217.91;4983390;28;20058;-86
2022/06/26 10:55:46;;;;;;;4.32;2.10;;;;;;;22.12;62.30;69224.75;4965681;28;20040;-86
2022/06/26 10:58:20;;;;;;;5.32;2.67;;;;;;;;;;4967515;28;20070;-87
2022/06/26 11:00:46;;;;;;;5.70;2.65;;;;;;;22.24;62.20;69240.66;4966597;28;20043;-86
2022/06/26 11:03:13;;;;;;;4.75;2.38;;;;;;;22.35;61.27;69255.41;4967950;28;20043;-87
2022/06/26 11:05:39;;;;;;;5.32;1.98;;;;;;;22.18;59.54;69236.50;5001087;28;20050;-89
2022/06/26 11:08:04;;;;;;;2.75;1.55;;;;;;;22.19;60.17;69237.66;4987871;28;20117;-86
2022/06/26 11:10:30;;;;;;;3.53;1.70;;;;;;;22.18;59.26;69237.09;4988887;28;20050;-86
2022/06/26 11:12:55;;;;;;;6.07;2.83;;;;;;;22.00;60.12;69216.44;4986850;28;20046;-87
2022/06/26 11:15:31;;;;;;;5.40;2.20;;;;;;;22.00;60.90;69214.31;4987666;28;20383;-86
2022/06/26 11:18:00;;;;;;;3.28;1.60;;;;;;;22.21;59.37;69235.09;4986856;28;20049;-87
2022/06/26 11:20:47;;;;;;;4.85;2.50;;;;;;;22.18;60.18;69237.09;4988900;28;20045;-86
2022/06/26 11:23:20;;;;;;;4.68;2.45;;;;;;;22.24;61.39;69238.53;4988501;28;20047;-87
2022/06/26 11:25:48;;;;;;;4.55;2.03;;;;;;;22.30;62.52;69250.84;4988648;28;20542;-88
2022/06/26 11:28:14;;;;;;;4.07;2.22;;;;;;;22.28;60.66;69248.53;4988444;28;20170;-87
2022/06/26 11:30:41;;;;;;;3.55;2.13;;;;;;;22.12;58.36;69230.19;4988823;28;20434;-88
2022/06/26 11:33:08;;;;;;;5.28;1.90;;;;;;;22.18;60.27;69237.09;4984632;28;20474;-87
2022/06/26 11:35:34;;;;;;;3.83;2.22;;;;;;;22.23;61.05;69237.38;4990264;28;20096;-86
2022/06/26 11:38:08;;;;;;;5.63;2.40;;;;;;;;;;4986075;28;20066;-87
2022/06/26 11:40:34;;;;;;;4.05;2.10;;;;;;;22.33;59.84;69253.69;4989166;28;20046;-86
2022/06/26 11:42:59;;;;;;;3.78;2.10;;;;;;;22.39;59.57;69257.28;4984890;28;20109;-87
2022/06/26 11:45:26;;;;;;;6.38;2.20;;;;;;;22.41;60.83;69259.56;4982451;28;20141;-88
2022/06/26 11:47:52;;;;;;;4.03;1.88;;;;;;;22.40;58.92;69261.69;4983306;28;20039;-88
2022/06/26 11:50:23;;;;;;;5.28;1.83;;;;;;;22.38;60.13;69259.41;4988580;28;20103;-87
2022/06/26 11:52:52;;;;;;;3.88;1.90;;;;;;;22.14;60.47;69229.19;4977746;28;20042;-87
2022/06/26 11:55:18;;;;;;;4.30;2.53;;;;;;;22.01;59.78;69214.88;4982626;28;20038;-86
2022/06/26 11:57:44;;;;;;;4.60;2.20;;;;;;;21.99;60.32;69212.59;4985423;28;20092;-86
2022/06/26 12:00:11;;;;;;;5.57;2.10;;;;;;;22.30;60.66;69245.41;4989856;23;20057;-79
2022/06/26 12:02:46;;;;;;;3.90;2.10;;;;;;;22.15;59.17;69230.34;4969621;28;20053;-78
2022/06/26 12:05:12;;;;;;;3.75;1.77;;;;;;;22.17;59.94;69235.34;4997711;28;20050;-80
2022/06/26 12:07:46;;;;;;;4.20;1.90;;;;;;;22.18;59.29;69231.09;4959949;28;20046;-79
2022/06/26 12:10:12;;;;;;;5.07;1.92;;;;;;;21.96;59.67;69209.75;4960130;28;20136;-78
2022/06/26 12:12:58;;;;;;;4.63;2.10;;;;;;;;;;4951766;28;20552;-79
2022/06/26 12:15:25;;;;;;;3.50;1.98;;;;;;;22.12;59.05;69230.19;4960859;28;20043;-79